createdAt,value
2019-05-22T00:02:35.454Z,5.33
2019-05-22T00:05:24.237Z,5.87
2019-05-22T00:07:55.492Z,4.80
2019-05-22T00:10:30.681Z,4.97
2019-05-22T00:13:01.421Z,5.37
2019-05-22T00:15:31.775Z,5.87
2019-05-22T00:18:03.481Z,4.83
2019-05-22T00:20:33.790Z,4.70
2019-05-22T00:23:08.006Z,5.80
2019-05-22T00:25:38.630Z,5.57
2019-05-22T00:28:08.191Z,5.40
2019-05-22T00:30:38.998Z,5.40
2019-05-22T00:33:10.125Z,6.30
2019-05-22T00:35:39.644Z,5.80
2019-05-22T00:38:09.593Z,6.90
2019-05-22T00:40:45.531Z,6.40
2019-05-22T00:43:17.000Z,7.37
2019-05-22T00:45:48.722Z,8.17
2019-05-22T00:48:20.786Z,7.77
2019-05-22T00:51:00.732Z,8.40
2019-05-22T00:53:41.981Z,11.60
2019-05-22T00:56:26.304Z,10.20
2019-05-22T00:59:02.263Z,12.37
2019-05-22T01:01:38.297Z,12.10
2019-05-22T01:04:10.290Z,13.13
2019-05-22T01:06:40.008Z,14.20
2019-05-22T01:09:16.722Z,13.00
2019-05-22T01:11:47.685Z,14.43
2019-05-22T01:14:19.008Z,17.13
2019-05-22T01:16:49.703Z,14.87
2019-05-22T01:19:19.721Z,16.50
2019-05-22T01:21:50.538Z,17.90
2019-05-22T01:24:19.553Z,16.27
2019-05-22T01:26:52.127Z,16.17
2019-05-22T01:29:21.483Z,17.83
2019-05-22T01:31:54.228Z,17.97
2019-05-22T01:34:27.678Z,18.00
2019-05-22T01:37:01.725Z,18.80
2019-05-22T01:39:51.473Z,19.50
2019-05-22T01:42:27.156Z,19.57
2019-05-22T01:45:05.797Z,21.03
2019-05-22T01:47:46.684Z,20.73
2019-05-22T01:50:24.254Z,20.03
2019-05-22T01:52:55.283Z,21.27
2019-05-22T01:55:26.300Z,20.00
2019-05-22T01:57:56.011Z,21.03
2019-05-22T02:00:27.622Z,20.97
2019-05-22T02:02:57.918Z,20.53
2019-05-22T02:05:27.218Z,21.23
2019-05-22T02:07:57.020Z,21.40
2019-05-22T02:10:31.108Z,19.80
2019-05-22T02:13:03.231Z,21.13
2019-05-22T02:15:34.921Z,22.10
2019-05-22T02:18:09.533Z,21.33
2019-05-22T02:20:39.657Z,23.57
2019-05-22T02:23:09.421Z,22.70
2019-05-22T02:25:39.565Z,21.40
2019-05-22T02:28:11.451Z,21.83
2019-05-22T02:30:42.734Z,21.63
2019-05-22T02:33:13.931Z,22.10
2019-05-22T02:35:43.086Z,20.47
2019-05-22T02:38:12.443Z,20.77
2019-05-22T02:40:44.070Z,22.00
2019-05-22T02:43:14.281Z,23.90
2019-05-22T02:45:43.661Z,24.97
2019-05-22T02:48:14.342Z,24.83
2019-05-22T02:50:43.379Z,25.70
2019-05-22T02:53:14.928Z,24.30
2019-05-22T02:55:44.126Z,26.70
2019-05-22T02:58:13.822Z,28.20
2019-05-22T03:01:03.134Z,28.90
2019-05-22T03:03:33.764Z,28.17
2019-05-22T03:06:04.534Z,27.93
2019-05-22T03:08:54.218Z,27.00
2019-05-22T03:11:24.890Z,28.57
2019-05-22T03:14:01.562Z,30.67
2019-05-22T03:16:54.201Z,28.70
2019-05-22T03:19:37.594Z,29.90
2019-05-22T03:22:25.738Z,31.93
2019-05-22T03:24:56.925Z,32.30
2019-05-22T03:27:36.449Z,32.93
2019-05-22T03:30:09.197Z,34.50
2019-05-22T03:32:43.387Z,31.27
2019-05-22T03:35:09.221Z,32.00
2019-05-22T03:37:39.786Z,32.60
2019-05-22T03:40:09.273Z,30.87
2019-05-22T03:42:38.362Z,29.87
2019-05-22T03:45:10.022Z,31.20
2019-05-22T03:47:41.257Z,33.50
2019-05-22T03:50:11.772Z,33.23
2019-05-22T03:52:41.386Z,32.40
2019-05-22T03:55:12.839Z,32.60
2019-05-22T03:57:42.694Z,32.00
2019-05-22T04:00:16.662Z,30.23
2019-05-22T04:02:49.349Z,31.10
2019-05-22T04:05:20.083Z,30.70
2019-05-22T04:07:50.109Z,29.47
2019-05-22T04:10:19.685Z,29.73
2019-05-22T04:12:50.119Z,29.63
2019-05-22T04:15:20.495Z,27.37
2019-05-22T04:17:49.626Z,27.10
2019-05-22T04:20:20.452Z,29.23
2019-05-22T04:22:55.783Z,27.70
2019-05-22T04:25:25.252Z,27.37
2019-05-22T04:27:54.537Z,26.17
2019-05-22T04:30:25.079Z,25.40
2019-05-22T04:32:54.166Z,26.07
2019-05-22T04:35:23.884Z,27.13
2019-05-22T04:37:53.894Z,23.97
2019-05-22T04:40:49.492Z,25.37
2019-05-22T04:43:21.309Z,26.90
2019-05-22T04:45:51.646Z,28.27
2019-05-22T04:48:39.813Z,26.60
2019-05-22T04:51:27.316Z,27.97
2019-05-22T04:53:57.370Z,29.20
2019-05-22T04:56:28.236Z,27.07
2019-05-22T04:58:58.598Z,31.23
2019-05-22T05:01:27.839Z,28.90
2019-05-22T05:03:57.366Z,31.87
2019-05-22T05:06:28.950Z,27.97
2019-05-22T05:08:58.099Z,28.80
2019-05-22T05:11:27.465Z,29.87
2019-05-22T05:13:56.673Z,30.87
2019-05-22T05:16:25.936Z,29.03
2019-05-22T05:18:55.386Z,29.40
2019-05-22T05:21:24.476Z,31.37
2019-05-22T05:23:54.145Z,31.00
2019-05-22T05:26:24.884Z,29.47
2019-05-22T05:28:54.484Z,31.37
2019-05-22T05:31:25.273Z,30.60
2019-05-22T05:34:10.884Z,31.73
2019-05-22T05:36:41.157Z,31.70
2019-05-22T05:39:32.710Z,29.10
2019-05-22T05:42:21.134Z,30.40
2019-05-22T05:44:50.173Z,30.97
2019-05-22T05:47:19.140Z,31.23
2019-05-22T05:49:49.157Z,29.67
2019-05-22T05:52:19.209Z,28.47
2019-05-22T05:54:49.545Z,27.87
2019-05-22T05:58:11.840Z,27.13
2019-05-22T06:00:46.850Z,29.23
2019-05-22T06:03:35.845Z,29.00
2019-05-22T06:06:32.929Z,26.80
2019-05-22T06:09:04.305Z,25.27
2019-05-22T06:11:46.809Z,26.10
2019-05-22T06:14:21.317Z,28.13
2019-05-22T06:17:51.445Z,25.07
2019-05-22T06:20:21.958Z,24.60
2019-05-22T06:23:42.195Z,27.10
2019-05-22T06:26:14.322Z,24.60
2019-05-22T06:28:43.925Z,25.80
2019-05-22T06:31:20.117Z,25.63
2019-05-22T06:33:49.151Z,24.43
2019-05-22T06:36:19.118Z,25.73
2019-05-22T06:38:57.341Z,28.17
2019-05-22T06:41:31.700Z,28.50
2019-05-22T06:44:38.888Z,28.97
2019-05-22T06:47:13.349Z,28.60
2019-05-22T06:49:47.233Z,30.60
2019-05-22T06:52:16.983Z,28.40
2019-05-22T06:54:46.221Z,28.07
2019-05-22T06:57:18.380Z,28.30
2019-05-22T06:59:49.148Z,29.47
2019-05-22T07:02:19.050Z,28.70
2019-05-22T07:04:48.157Z,28.30
2019-05-22T07:07:18.365Z,29.50
2019-05-22T07:09:47.388Z,29.27
2019-05-22T07:12:20.058Z,30.27
2019-05-22T07:16:01.773Z,30.30
2019-05-22T07:18:31.877Z,28.90
2019-05-22T07:21:01.590Z,29.50
2019-05-22T07:23:33.301Z,30.67
2019-05-22T07:26:04.379Z,29.40
2019-05-22T07:28:35.183Z,29.37
2019-05-22T07:31:05.908Z,28.07
2019-05-22T07:33:35.013Z,28.90
2019-05-22T07:36:09.941Z,30.17
2019-05-22T07:38:36.277Z,27.50
2019-05-22T07:41:08.284Z,28.23
2019-05-22T07:43:41.167Z,26.60
2019-05-22T07:46:09.108Z,28.30
2019-05-22T07:48:38.164Z,25.90
2019-05-22T07:51:08.181Z,26.50
2019-05-22T07:53:37.522Z,26.97
2019-05-22T07:56:10.192Z,25.87
2019-05-22T07:58:39.752Z,24.87
2019-05-22T08:01:09.585Z,26.97
2019-05-22T08:03:39.946Z,24.93
2019-05-22T08:06:09.366Z,24.57
2019-05-22T08:08:41.736Z,23.80
2019-05-22T08:11:11.258Z,22.40
2019-05-22T08:13:41.547Z,24.83
2019-05-22T08:16:11.058Z,23.73
2019-05-22T08:18:41.447Z,22.63
2019-05-22T08:21:11.685Z,24.00
2019-05-22T08:23:41.104Z,22.43
2019-05-22T08:26:11.621Z,24.47
2019-05-22T08:28:41.280Z,22.90
2019-05-22T08:31:13.075Z,20.73
2019-05-22T08:33:42.818Z,24.00
2019-05-22T08:36:12.509Z,23.67
2019-05-22T08:38:44.492Z,24.70
2019-05-22T08:41:15.352Z,23.80
2019-05-22T08:44:11.379Z,23.30
2019-05-22T08:46:18.149Z,25.47
2019-05-22T08:48:49.301Z,23.60
2019-05-22T08:51:19.187Z,21.63
2019-05-22T08:53:49.147Z,24.50
2019-05-22T08:56:18.802Z,21.50
2019-05-22T08:58:48.769Z,23.90
2019-05-22T09:01:17.797Z,23.07
2019-05-22T09:03:47.460Z,23.30
2019-05-22T09:06:16.931Z,23.80
2019-05-22T09:08:46.139Z,22.70
2019-05-22T09:11:15.233Z,23.60
2019-05-22T09:13:44.208Z,24.20
2019-05-22T09:16:14.413Z,22.73
2019-05-22T09:18:43.387Z,25.20
2019-05-22T09:21:13.397Z,29.00
2019-05-22T09:23:43.026Z,27.83
2019-05-22T09:26:12.625Z,32.07
2019-05-22T09:28:41.934Z,30.20
2019-05-22T09:31:10.961Z,28.67
2019-05-22T09:33:40.014Z,25.43
2019-05-22T09:36:09.530Z,24.50
2019-05-22T09:38:39.115Z,24.10
2019-05-22T09:41:08.338Z,22.80
2019-05-22T09:43:37.738Z,21.87
2019-05-22T09:46:08.812Z,23.23
2019-05-22T09:48:38.433Z,21.93
2019-05-22T09:51:07.485Z,23.57
2019-05-22T09:53:38.170Z,20.57
2019-05-22T09:56:07.553Z,21.83
2019-05-22T09:58:36.883Z,20.73
2019-05-22T10:01:11.306Z,21.53
2019-05-22T10:03:39.110Z,21.37
2019-05-22T10:06:08.293Z,25.57
2019-05-22T10:08:38.298Z,20.90
2019-05-22T10:11:07.869Z,22.67
2019-05-22T10:13:37.093Z,21.87
2019-05-22T10:16:06.637Z,21.67
2019-05-22T10:18:35.857Z,22.10
2019-05-22T10:21:05.200Z,20.50
2019-05-22T10:23:34.672Z,21.50
2019-05-22T10:26:04.481Z,20.87
2019-05-22T10:28:34.445Z,23.10
2019-05-22T10:31:03.736Z,22.97
2019-05-22T10:33:32.979Z,22.77
2019-05-22T10:36:01.932Z,24.10
2019-05-22T10:38:31.090Z,23.80
2019-05-22T10:41:00.157Z,23.40
2019-05-22T10:43:29.503Z,22.90
2019-05-22T10:45:58.936Z,22.60
2019-05-22T10:48:28.430Z,23.80
2019-05-22T10:50:57.372Z,23.43
2019-05-22T10:53:33.868Z,21.90
2019-05-22T10:55:58.685Z,22.30
2019-05-22T10:58:27.729Z,21.10
2019-05-22T11:00:56.853Z,22.90
2019-05-22T11:03:26.649Z,23.50
2019-05-22T11:06:06.600Z,23.13
2019-05-22T11:08:31.832Z,22.80
2019-05-22T11:10:57.984Z,21.90
2019-05-22T11:13:27.125Z,23.20
2019-05-22T11:15:58.469Z,22.60
2019-05-22T11:18:28.217Z,22.50
2019-05-22T11:20:58.048Z,24.10
2019-05-22T11:23:27.988Z,23.40
2019-05-22T11:25:57.309Z,21.90
2019-05-22T11:28:27.806Z,23.47
2019-05-22T11:30:58.016Z,23.47
2019-05-22T11:33:27.771Z,24.10
2019-05-22T11:35:57.410Z,22.80
2019-05-22T11:38:27.225Z,21.93
2019-05-22T11:40:56.828Z,20.20
2019-05-22T11:43:26.766Z,22.37
2019-05-22T11:45:56.002Z,21.80
2019-05-22T11:48:26.124Z,21.83
2019-05-22T11:50:55.753Z,22.27
2019-05-22T11:53:25.476Z,21.57
2019-05-22T11:55:54.786Z,21.70
2019-05-22T11:58:24.185Z,23.03
2019-05-22T12:00:53.209Z,22.13
2019-05-22T12:03:24.650Z,22.03
2019-05-22T12:05:54.970Z,19.10
2019-05-22T12:08:25.289Z,20.40
2019-05-22T12:10:54.493Z,19.50
2019-05-22T12:13:24.719Z,21.00
2019-05-22T12:15:56.218Z,20.47
2019-05-22T12:18:26.934Z,21.03
2019-05-22T12:20:56.381Z,21.20
2019-05-22T12:23:26.637Z,22.57
2019-05-22T12:25:56.309Z,21.90
2019-05-22T12:28:25.516Z,21.73
2019-05-22T12:30:55.621Z,21.77
2019-05-22T12:33:24.945Z,21.63
2019-05-22T12:35:54.656Z,23.30
2019-05-22T12:38:26.900Z,22.40
2019-05-22T12:40:56.825Z,21.63
2019-05-22T12:43:30.286Z,24.17
2019-05-22T12:45:59.613Z,21.87
2019-05-22T12:48:29.426Z,21.27
2019-05-22T12:50:59.350Z,22.00
2019-05-22T12:53:30.190Z,20.33
2019-05-22T12:55:59.729Z,19.73
2019-05-22T12:58:30.013Z,16.90
2019-05-22T13:00:59.922Z,18.93
2019-05-22T13:03:30.193Z,19.70
2019-05-22T13:06:01.374Z,19.17
2019-05-22T13:08:31.817Z,17.40
2019-05-22T13:11:05.135Z,18.40
2019-05-22T13:13:32.250Z,19.10
2019-05-22T13:16:02.081Z,17.77
2019-05-22T13:18:33.217Z,18.93
2019-05-22T13:21:06.053Z,18.90
2019-05-22T13:23:39.528Z,16.63
2019-05-22T13:26:09.302Z,18.50
2019-05-22T13:28:42.181Z,17.67
2019-05-22T13:31:11.523Z,17.07
2019-05-22T13:33:43.580Z,16.30
2019-05-22T13:36:14.312Z,15.53
2019-05-22T13:38:43.555Z,15.93
2019-05-22T13:41:12.897Z,17.00
2019-05-22T13:43:42.224Z,18.10
2019-05-22T13:46:11.622Z,16.23
2019-05-22T13:48:40.652Z,15.53
2019-05-22T13:51:12.040Z,15.17
2019-05-22T13:53:42.546Z,16.00
2019-05-22T13:56:12.000Z,14.90
2019-05-22T13:58:41.622Z,16.23
2019-05-22T14:01:11.272Z,14.47
2019-05-22T14:03:41.487Z,15.77
2019-05-22T14:06:10.630Z,15.10
2019-05-22T14:08:39.883Z,14.30
2019-05-22T14:11:10.326Z,14.33
2019-05-22T14:13:39.713Z,13.90
2019-05-22T14:16:09.831Z,12.60
2019-05-22T14:18:38.959Z,12.10
2019-05-22T14:21:08.000Z,14.47
2019-05-22T14:23:37.245Z,11.87
2019-05-22T14:26:06.361Z,10.00
2019-05-22T14:28:36.187Z,9.53
2019-05-22T14:31:05.521Z,9.33
2019-05-22T14:33:34.542Z,8.77
2019-05-22T14:36:04.757Z,8.87
2019-05-22T14:38:34.584Z,9.17
2019-05-22T14:41:04.973Z,9.50
2019-05-22T14:43:34.305Z,7.67
2019-05-22T14:46:03.851Z,9.73
2019-05-22T14:48:32.961Z,9.30
2019-05-22T14:51:02.517Z,9.27
2019-05-22T14:53:31.940Z,9.67
2019-05-22T14:56:01.185Z,9.00
2019-05-22T14:58:30.308Z,9.53
2019-05-22T15:01:00.185Z,10.73
2019-05-22T15:03:29.156Z,11.10
2019-05-22T15:05:58.261Z,12.00
2019-05-22T15:08:27.893Z,11.50
2019-05-22T15:10:58.474Z,10.40
2019-05-22T15:13:27.923Z,10.00
2019-05-22T15:15:57.137Z,10.20
2019-05-22T15:18:26.473Z,10.83
2019-05-22T15:21:04.829Z,10.03
2019-05-22T15:23:34.744Z,10.63
2019-05-22T15:26:03.976Z,10.93
2019-05-22T15:28:34.491Z,10.97
2019-05-22T15:31:04.492Z,10.13
2019-05-22T15:33:35.034Z,9.63
2019-05-22T15:36:06.748Z,9.37
2019-05-22T15:38:38.940Z,9.23
2019-05-22T15:41:09.453Z,8.83
2019-05-22T15:43:40.202Z,9.60
2019-05-22T15:46:10.856Z,10.00
2019-05-22T15:48:43.204Z,9.70
2019-05-22T15:51:12.810Z,8.80
2019-05-22T15:53:43.293Z,8.00
2019-05-22T15:56:12.501Z,8.50
2019-05-22T15:58:48.854Z,8.93
2019-05-22T16:01:22.090Z,8.83
2019-05-22T16:03:51.744Z,9.50
2019-05-22T16:06:22.117Z,8.60
2019-05-22T16:08:53.080Z,8.17
2019-05-22T16:11:25.196Z,9.77
2019-05-22T16:13:56.489Z,8.47
2019-05-22T16:16:26.615Z,8.87
2019-05-22T16:19:00.117Z,9.20
2019-05-22T16:21:31.437Z,8.27
2019-05-22T16:24:01.050Z,7.70
2019-05-22T16:26:30.668Z,7.47
2019-05-22T16:29:01.209Z,7.40
2019-05-22T16:31:31.505Z,9.50
2019-05-22T16:34:00.602Z,8.03
2019-05-22T16:36:30.803Z,7.87
2019-05-22T16:39:00.564Z,8.00
2019-05-22T16:41:32.061Z,8.10
2019-05-22T16:44:01.185Z,9.20
2019-05-22T16:46:31.036Z,8.30
2019-05-22T16:49:00.162Z,9.50
2019-05-22T16:51:31.272Z,8.87
2019-05-22T16:54:07.125Z,8.37
2019-05-22T16:56:38.292Z,7.50
2019-05-22T16:59:10.117Z,8.17
2019-05-22T17:01:57.661Z,7.90
2019-05-22T17:04:11.897Z,8.40
2019-05-22T17:06:43.409Z,8.30
2019-05-22T17:09:15.677Z,8.70
2019-05-22T17:11:45.927Z,8.00
2019-05-22T17:14:16.940Z,8.50
2019-05-22T17:17:05.801Z,8.07
2019-05-22T17:19:35.020Z,8.20
2019-05-22T17:22:06.685Z,7.97
2019-05-22T17:24:36.086Z,8.33
2019-05-22T17:27:07.668Z,8.10
2019-05-22T17:29:37.521Z,7.93
2019-05-22T17:32:08.039Z,8.30
2019-05-22T17:34:39.182Z,7.33
2019-05-22T17:37:14.401Z,7.90
2019-05-22T17:39:46.665Z,7.93
2019-05-22T17:42:18.869Z,7.73
2019-05-22T17:44:50.649Z,7.60
2019-05-22T17:47:21.912Z,7.57
2019-05-22T17:49:51.538Z,7.10
2019-05-22T17:52:22.082Z,7.90
2019-05-22T17:54:51.965Z,6.33
2019-05-22T17:57:24.026Z,7.23
2019-05-22T17:59:54.348Z,6.80
2019-05-22T18:02:26.271Z,6.97
2019-05-22T18:04:55.573Z,6.00
2019-05-22T18:07:25.206Z,6.93
2019-05-22T18:09:54.806Z,7.07
2019-05-22T18:12:24.127Z,6.50
2019-05-22T18:14:53.942Z,6.57
2019-05-22T18:17:23.604Z,6.87
2019-05-22T18:19:53.145Z,6.27
2019-05-22T18:22:22.445Z,7.03
2019-05-22T18:24:51.492Z,6.80
2019-05-22T18:27:20.828Z,8.90
2019-05-22T18:29:50.273Z,7.47
2019-05-22T18:32:19.564Z,6.90
2019-05-22T18:34:48.529Z,7.60
2019-05-22T18:37:17.816Z,6.50
2019-05-22T18:39:47.529Z,8.03
2019-05-22T18:42:17.110Z,6.23
2019-05-22T18:44:46.613Z,6.93
2019-05-22T18:47:15.857Z,6.10
2019-05-22T18:49:44.887Z,6.07
2019-05-22T18:52:14.105Z,7.00
2019-05-22T18:54:43.338Z,7.00
2019-05-22T18:57:12.349Z,6.90
2019-05-22T18:59:41.653Z,7.80
2019-05-22T19:02:11.917Z,6.63
2019-05-22T19:04:41.252Z,6.67
2019-05-22T19:07:10.272Z,6.67
2019-05-22T19:09:39.506Z,7.13
2019-05-22T19:12:08.729Z,6.20
2019-05-22T19:14:38.417Z,6.90
2019-05-22T19:17:07.705Z,6.33
2019-05-22T19:19:37.562Z,6.90
2019-05-22T19:22:07.040Z,5.97
2019-05-22T19:24:36.255Z,6.70
2019-05-22T19:27:05.419Z,7.33
2019-05-22T19:29:34.653Z,6.37
2019-05-22T19:32:04.034Z,6.47
2019-05-22T19:34:33.624Z,6.23
2019-05-22T19:37:03.054Z,7.20
2019-05-22T19:39:33.665Z,6.60
2019-05-22T19:42:05.649Z,6.30
2019-05-22T19:44:34.209Z,6.43
2019-05-22T19:47:03.421Z,6.17
2019-05-22T19:49:32.444Z,5.90
2019-05-22T19:52:01.698Z,6.27
2019-05-22T19:54:31.131Z,6.23
2019-05-22T19:57:00.518Z,6.90
2019-05-22T19:59:49.177Z,7.23
2019-05-22T20:02:18.320Z,6.50
2019-05-22T20:04:47.660Z,6.50
2019-05-22T20:07:17.381Z,5.40
2019-05-22T20:09:48.456Z,7.03
2019-05-22T20:12:18.759Z,6.80
2019-05-22T20:14:48.235Z,6.23
2019-05-22T20:17:17.446Z,5.90
2019-05-22T20:19:46.713Z,6.43
2019-05-22T20:22:15.668Z,5.80
2019-05-22T20:24:45.005Z,7.53
2019-05-22T20:27:14.645Z,6.37
2019-05-22T20:29:45.001Z,7.00
2019-05-22T20:32:15.349Z,6.30
2019-05-22T20:34:46.018Z,6.53
2019-05-22T20:37:15.308Z,5.33
2019-05-22T20:39:45.534Z,6.00
2019-05-22T20:42:14.959Z,5.50
2019-05-22T20:44:44.184Z,5.40
2019-05-22T20:47:13.892Z,5.53
2019-05-22T20:49:45.229Z,5.53
2019-05-22T20:52:17.147Z,5.90
2019-05-22T20:54:48.701Z,6.10
2019-05-22T20:57:20.262Z,5.33
2019-05-22T20:59:49.749Z,5.43
2019-05-22T21:02:19.745Z,5.40
2019-05-22T21:04:51.353Z,5.40
2019-05-22T21:07:26.541Z,5.40
2019-05-22T21:09:56.433Z,4.50
2019-05-22T21:12:27.594Z,5.57
2019-05-22T21:14:57.736Z,5.47
2019-05-22T21:17:28.258Z,5.20
2019-05-22T21:19:58.185Z,5.00
2019-05-22T21:22:27.476Z,4.70
2019-05-22T21:24:56.505Z,4.90
2019-05-22T21:27:26.321Z,5.00
2019-05-22T21:29:57.241Z,5.70
2019-05-22T21:32:27.581Z,5.00
2019-05-22T21:34:57.178Z,5.00
2019-05-22T21:37:27.037Z,5.40
2019-05-22T21:39:57.164Z,7.17
2019-05-22T21:42:26.780Z,5.37
2019-05-22T21:44:56.297Z,5.10
2019-05-22T21:47:25.548Z,5.17
2019-05-22T21:49:55.245Z,5.93
2019-05-22T21:52:24.805Z,4.43
2019-05-22T21:54:54.521Z,5.43
2019-05-22T21:57:23.965Z,5.53
2019-05-22T21:59:53.557Z,5.80
2019-05-22T22:02:31.601Z,5.07
2019-05-22T22:05:00.500Z,4.50
2019-05-22T22:07:30.571Z,5.00
2019-05-22T22:10:00.455Z,4.40
2019-05-22T22:12:30.965Z,4.90
2019-05-22T22:34:54.112Z,3.57
2019-05-22T22:37:24.656Z,5.10
2019-05-22T22:39:56.582Z,5.67
2019-05-22T22:42:29.142Z,5.60
2019-05-22T22:44:58.991Z,6.70
2019-05-22T22:47:45.748Z,6.00
2019-05-22T22:50:16.561Z,6.20
2019-05-22T22:52:46.312Z,6.65
2019-05-22T22:55:18.986Z,6.62
2019-05-22T22:57:49.695Z,5.30
2019-05-22T23:00:25.176Z,5.60
2019-05-22T23:02:54.696Z,5.80
2019-05-22T23:05:24.434Z,5.00
2019-05-22T23:07:54.892Z,5.80
2019-05-22T23:10:25.695Z,6.10
2019-05-22T23:12:54.940Z,7.00
2019-05-22T23:15:25.538Z,6.50
2019-05-22T23:17:55.437Z,5.40
2019-05-22T23:20:23.337Z,4.80
2019-05-22T23:22:51.633Z,4.50
2019-05-22T23:25:21.257Z,4.60
2019-05-22T23:27:50.962Z,5.20
2019-05-22T23:30:22.710Z,5.42
2019-05-22T23:32:54.442Z,5.50
2019-05-22T23:35:24.872Z,5.30
2019-05-22T23:37:54.952Z,5.47
2019-05-22T23:40:28.433Z,5.95
2019-05-22T23:42:59.429Z,6.30
2019-05-22T23:45:28.470Z,7.00
2019-05-22T23:48:06.127Z,6.00
2019-05-22T23:50:38.144Z,5.47
2019-05-22T23:53:08.594Z,4.78
2019-05-22T23:55:38.892Z,5.90
2019-05-22T23:58:11.778Z,5.47
